Time;durP1;ratioP1;P1;durP2;ratioP2;P2;SDS_P1;SDS_P2;PMS_P1;PMS_P2;Temp;Humidity;BMP_temperature;BMP_pressure;BME280_temperature;BME280_humidity;BME280_pressure;Samples;Min_cycle;Max_cycle;Signal;HPM_P1;HPM_P2
2022/01/09 00:00:27;;;;;;;10.45;2.45;;;;;;;;;;4974531;28;20042;-67
2022/01/09 00:02:54;;;;;;;5.25;1.98;;;;;;;;;;5011574;28;20041;-67
2022/01/09 00:05:21;;;;;;;8.10;1.92;;;;;;;;;;5011852;28;20490;-67
2022/01/09 00:07:48;;;;;;;8.82;2.17;;;;;;;;;;5002869;28;20034;-68
2022/01/09 00:10:16;;;;;;;10.75;2.10;;;;;;;;;;4979033;28;20030;-67
2022/01/09 00:12:43;;;;;;;7.85;2.42;;;;;;;;;;4995050;28;20034;-67
2022/01/09 00:15:10;;;;;;;19.85;2.95;;;;;;;;;;5010388;28;20029;-68
2022/01/09 00:17:38;;;;;;;12.60;2.15;;;;;;;;;;5018277;28;20038;-67
2022/01/09 00:20:06;;;;;;;16.10;2.53;;;;;;;;;;5014479;28;20028;-66
2022/01/09 00:22:45;;;;;;;20.30;2.80;;;;;;;;;;5018057;28;20109;-67
2022/01/09 00:25:12;;;;;;;18.55;2.17;;;;;;;;;;5006097;28;20029;-66
2022/01/09 00:27:40;;;;;;;14.18;2.58;;;;;;;;;;5009787;28;20096;-67
2022/01/09 00:30:08;;;;;;;28.90;2.40;;;;;;;;;;5007861;28;20030;-68
2022/01/09 00:32:35;;;;;;;23.65;2.33;;;;;;;;;;5003223;28;20021;-68
2022/01/09 00:35:02;;;;;;;24.80;3.08;;;;;;;;;;5009204;28;20029;-67
2022/01/09 00:37:29;;;;;;;21.02;2.92;;;;;;;;;;5009300;28;20485;-68
2022/01/09 00:39:56;;;;;;;32.20;2.65;;;;;;;;;;5000305;28;20523;-68
2022/01/09 00:42:23;;;;;;;12.73;2.85;;;;;;;;;;5021062;28;21292;-68
2022/01/09 00:44:50;;;;;;;25.55;3.10;;;;;;;;;;5019052;28;20028;-67
2022/01/09 00:47:17;;;;;;;21.45;2.80;;;;;;;;;;5022514;28;20108;-67
2022/01/09 00:49:44;;;;;;;22.83;2.35;;;;;;;;;;5015200;28;20068;-67
2022/01/09 00:52:11;;;;;;;24.42;2.60;;;;;;;;;;5019576;28;20060;-67
2022/01/09 00:54:38;;;;;;;24.95;3.60;;;;;;;;;;5020506;28;20027;-68
2022/01/09 00:57:06;;;;;;;21.30;2.50;;;;;;;;;;5010495;28;20059;-67
2022/01/09 00:59:33;;;;;;;23.05;2.75;;;;;;;;;;5016861;28;20025;-67
2022/01/09 01:02:00;;;;;;;28.20;3.20;;;;;;;;;;5020983;28;20033;-67
2022/01/09 01:04:27;;;;;;;17.63;2.30;;;;;;;;;;5013644;28;20026;-67
2022/01/09 01:06:54;;;;;;;18.23;2.47;;;;;;;;;;5017034;28;20045;-67
2022/01/09 01:09:23;;;;;;;20.08;2.88;;;;;;;;;;5013218;28;20025;-67
2022/01/09 01:11:50;;;;;;;18.65;2.83;;;;;;;;;;5009856;28;20129;-66
2022/01/09 01:14:22;;;;;;;20.70;2.10;;;;;;;;;;5002442;28;20387;-66
2022/01/09 01:16:49;;;;;;;21.07;3.73;;;;;;;;;;5013385;28;20026;-66
2022/01/09 01:19:16;;;;;;;22.50;2.85;;;;;;;;;;5018335;28;20022;-66
2022/01/09 01:21:43;;;;;;;12.90;2.67;;;;;;;;;;5012987;28;20037;-66
2022/01/09 01:24:10;;;;;;;19.67;3.42;;;;;;;;;;5010093;28;20097;-66
2022/01/09 01:26:38;;;;;;;21.08;3.05;;;;;;;;;;5002421;28;20474;-67
2022/01/09 01:29:05;;;;;;;15.32;2.70;;;;;;;;;;5002187;28;20037;-66
2022/01/09 01:31:32;;;;;;;30.88;3.47;;;;;;;;;;4999728;28;20030;-66
2022/01/09 01:33:59;;;;;;;20.33;2.58;;;;;;;;;;4978605;28;20382;-66
2022/01/09 01:36:26;;;;;;;31.17;2.40;;;;;;;;;;4991326;28;20043;-65
2022/01/09 01:38:53;;;;;;;17.33;2.45;;;;;;;;;;5002020;28;20034;-66
2022/01/09 01:41:20;;;;;;;32.78;2.92;;;;;;;;;;5002078;28;20030;-66
2022/01/09 01:43:47;;;;;;;15.07;1.98;;;;;;;;;;5001442;28;20034;-67
2022/01/09 01:46:14;;;;;;;19.58;2.58;;;;;;;;;;5000171;28;20033;-65
2022/01/09 01:48:41;;;;;;;18.90;2.35;;;;;;;;;;4975891;28;20117;-66
2022/01/09 01:51:08;;;;;;;21.58;1.92;;;;;;;;;;5002035;28;20048;-67
2022/01/09 01:53:38;;;;;;;17.13;2.33;;;;;;;;;;5003262;28;20022;-68
2022/01/09 01:56:06;;;;;;;18.98;2.20;;;;;;;;;;5001553;28;20072;-65
2022/01/09 01:58:35;;;;;;;20.15;1.98;;;;;;;;;;4994465;28;20027;-66
2022/01/09 02:01:02;;;;;;;14.38;1.83;;;;;;;;;;4999283;28;20031;-67
2022/01/09 02:03:29;;;;;;;15.27;2.10;;;;;;;;;;5001153;28;20049;-65
2022/01/09 02:05:56;;;;;;;12.05;1.75;;;;;;;;;;5001726;28;20022;-67
2022/01/09 02:08:24;;;;;;;8.98;1.95;;;;;;;;;;5001875;28;20030;-66
2022/01/09 02:10:51;;;;;;;12.75;1.83;;;;;;;;;;5000107;28;20390;-66
2022/01/09 02:13:19;;;;;;;10.68;1.83;;;;;;;;;;4997079;28;20508;-66
2022/01/09 02:15:48;;;;;;;18.02;1.98;;;;;;;;;;5000480;28;20477;-66
2022/01/09 02:18:17;;;;;;;11.00;1.90;;;;;;;;;;5005986;28;20535;-66
2022/01/09 02:20:45;;;;;;;10.00;1.80;;;;;;;;;;4976520;28;20470;-66
2022/01/09 02:23:13;;;;;;;17.23;2.05;;;;;;;;;;5011252;28;20036;-67
2022/01/09 02:25:40;;;;;;;16.67;1.98;;;;;;;;;;4992548;28;20253;-66
2022/01/09 02:28:08;;;;;;;10.45;1.50;;;;;;;;;;5013590;28;20025;-67
2022/01/09 02:30:35;;;;;;;11.60;2.38;;;;;;;;;;5008106;28;20037;-67
2022/01/09 02:33:04;;;;;;;18.80;1.20;;;;;;;;;;4993151;28;20041;-66
2022/01/09 02:35:31;;;;;;;13.43;1.65;;;;;;;;;;5003889;28;20120;-67
2022/01/09 02:37:58;;;;;;;10.38;1.38;;;;;;;;;;5005331;28;20103;-68
2022/01/09 02:40:25;;;;;;;9.25;1.40;;;;;;;;;;5004432;28;20415;-67
2022/01/09 02:42:53;;;;;;;15.10;2.42;;;;;;;;;;4981905;28;20033;-66
2022/01/09 02:45:23;;;;;;;12.32;2.08;;;;;;;;;;5007500;28;20033;-66
2022/01/09 02:47:55;;;;;;;9.50;2.03;;;;;;;;;;5019939;28;20026;-68
2022/01/09 02:53:01;;;;;;;12.48;2.00;;;;;;;;;;5013353;28;20029;-68
2022/01/09 02:55:29;;;;;;;14.50;2.10;;;;;;;;;;5010468;28;20026;-66
2022/01/09 02:58:00;;;;;;;11.15;2.42;;;;;;;;;;4994281;28;20153;-68
2022/01/09 03:00:28;;;;;;;12.25;3.13;;;;;;;;;;4998153;28;20037;-68
2022/01/09 03:02:55;;;;;;;12.65;3.72;;;;;;;;;;4998810;28;20049;-68
2022/01/09 03:05:23;;;;;;;16.15;4.15;;;;;;;;;;5005320;28;20030;-66
2022/01/09 03:07:51;;;;;;;11.70;3.03;;;;;;;;;;5019143;28;20076;-67
2022/01/09 03:10:19;;;;;;;11.65;2.90;;;;;;;;;;5000214;28;20402;-67
2022/01/09 03:12:47;;;;;;;17.08;3.08;;;;;;;;;;5004667;28;20033;-68
2022/01/09 03:15:14;;;;;;;12.02;3.10;;;;;;;;;;5007960;28;20128;-66
2022/01/09 03:17:41;;;;;;;15.25;2.70;;;;;;;;;;5000228;28;20038;-67
2022/01/09 03:20:10;;;;;;;16.05;3.03;;;;;;;;;;5012540;28;20486;-67
2022/01/09 03:22:37;;;;;;;13.27;2.83;;;;;;;;;;4998507;28;20038;-67
2022/01/09 03:25:05;;;;;;;14.60;2.50;;;;;;;;;;4990293;28;20378;-67
2022/01/09 03:27:32;;;;;;;10.85;2.00;;;;;;;;;;5004755;28;20026;-67
2022/01/09 03:29:59;;;;;;;16.30;2.60;;;;;;;;;;5003907;28;20382;-68
2022/01/09 03:32:26;;;;;;;11.55;1.90;;;;;;;;;;4994398;28;20033;-67
2022/01/09 03:34:53;;;;;;;6.82;1.50;;;;;;;;;;5004628;28;20037;-66
2022/01/09 03:37:20;;;;;;;10.52;1.70;;;;;;;;;;5001801;28;20052;-66
2022/01/09 03:39:47;;;;;;;12.52;1.63;;;;;;;;;;5000965;28;20026;-66
2022/01/09 03:42:14;;;;;;;7.35;1.63;;;;;;;;;;5012725;28;20437;-66
2022/01/09 03:44:42;;;;;;;9.18;1.30;;;;;;;;;;5031864;28;20032;-66
2022/01/09 03:47:09;;;;;;;21.92;2.33;;;;;;;;;;5027471;28;20034;-66
2022/01/09 03:49:39;;;;;;;13.77;1.77;;;;;;;;;;5032688;28;20022;-66
2022/01/09 03:52:06;;;;;;;10.30;1.88;;;;;;;;;;5032077;28;20025;-66
2022/01/09 03:54:36;;;;;;;10.85;1.90;;;;;;;;;;5032740;28;20473;-66
2022/01/09 03:57:03;;;;;;;6.03;1.50;;;;;;;;;;5033203;28;20124;-66
2022/01/09 03:59:30;;;;;;;10.95;1.63;;;;;;;;;;5033297;28;20021;-67
2022/01/09 04:01:57;;;;;;;14.30;2.67;;;;;;;;;;5033161;28;20021;-67
2022/01/09 04:04:24;;;;;;;11.27;1.75;;;;;;;;;;5014849;28;20026;-66
2022/01/09 04:06:51;;;;;;;6.55;1.60;;;;;;;;;;5033198;28;20030;-66
2022/01/09 04:09:21;;;;;;;14.50;1.63;;;;;;;;;;5032967;28;20029;-67
2022/01/09 04:11:49;;;;;;;12.90;1.58;;;;;;;;;;5032777;28;20039;-68
2022/01/09 04:14:16;;;;;;;11.02;2.15;;;;;;;;;;5014949;28;20446;-68
2022/01/09 04:16:43;;;;;;;11.00;1.40;;;;;;;;;;5032549;28;20065;-67
2022/01/09 04:19:13;;;;;;;11.23;1.42;;;;;;;;;;5033267;28;20029;-68
2022/01/09 04:21:42;;;;;;;12.48;1.70;;;;;;;;;;5032788;28;20516;-67
2022/01/09 04:24:10;;;;;;;12.13;1.55;;;;;;;;;;5032332;28;20496;-67
2022/01/09 04:26:37;;;;;;;7.38;1.45;;;;;;;;;;5032410;28;20477;-66
2022/01/09 04:29:05;;;;;;;5.90;1.45;;;;;;;;;;5032641;28;20071;-68
2022/01/09 04:31:32;;;;;;;5.97;1.40;;;;;;;;;;5032423;28;20071;-67
2022/01/09 04:33:59;;;;;;;7.95;1.58;;;;;;;;;;5031948;28;20029;-68
2022/01/09 04:36:26;;;;;;;6.47;1.23;;;;;;;;;;5014695;28;20037;-68
2022/01/09 04:38:55;;;;;;;3.88;0.95;;;;;;;;;;5032673;28;20029;-67
2022/01/09 04:41:22;;;;;;;10.57;1.45;;;;;;;;;;5032572;28;20501;-68
2022/01/09 04:43:50;;;;;;;13.18;1.70;;;;;;;;;;5031395;28;20040;-68
2022/01/09 04:46:24;;;;;;;5.82;1.73;;;;;;;;;;5032315;28;20492;-67
2022/01/09 04:48:54;;;;;;;9.98;1.90;;;;;;;;;;5032357;28;20025;-67
2022/01/09 04:51:21;;;;;;;13.77;2.05;;;;;;;;;;5032408;28;20056;-67
2022/01/09 04:53:48;;;;;;;9.18;2.15;;;;;;;;;;5031433;28;20017;-68
2022/01/09 04:56:15;;;;;;;12.73;2.33;;;;;;;;;;5032048;28;20029;-65
2022/01/09 04:58:42;;;;;;;12.02;1.73;;;;;;;;;;5021029;28;20026;-66
2022/01/09 05:01:09;;;;;;;14.43;1.80;;;;;;;;;;5012669;28;20029;-66
2022/01/09 05:03:36;;;;;;;9.65;1.27;;;;;;;;;;5011391;28;20052;-68
2022/01/09 05:06:03;;;;;;;10.57;1.65;;;;;;;;;;5012736;28;20428;-68
2022/01/09 05:08:30;;;;;;;7.22;1.60;;;;;;;;;;5012385;28;20024;-68
2022/01/09 05:10:57;;;;;;;6.35;1.02;;;;;;;;;;5012118;28;20500;-67
2022/01/09 05:13:24;;;;;;;6.90;1.08;;;;;;;;;;4994472;28;20777;-68
2022/01/09 05:15:51;;;;;;;7.75;1.00;;;;;;;;;;5012401;28;20068;-68
2022/01/09 05:18:19;;;;;;;12.38;1.60;;;;;;;;;;5012131;28;20022;-67
2022/01/09 05:20:46;;;;;;;12.85;2.10;;;;;;;;;;5012084;28;20425;-67
2022/01/09 05:23:14;;;;;;;12.25;1.92;;;;;;;;;;5011359;28;20033;-67
2022/01/09 05:25:41;;;;;;;6.78;2.05;;;;;;;;;;5011858;28;20030;-67
2022/01/09 05:28:08;;;;;;;8.77;2.75;;;;;;;;;;5011307;28;20029;-68
2022/01/09 05:30:35;;;;;;;13.23;3.50;;;;;;;;;;5011951;28;20025;-67
2022/01/09 05:33:02;;;;;;;8.55;2.75;;;;;;;;;;4994254;28;20028;-67
2022/01/09 05:35:29;;;;;;;11.40;3.45;;;;;;;;;;5011350;28;20079;-67
2022/01/09 05:37:56;;;;;;;6.00;2.60;;;;;;;;;;5011763;28;20046;-67
2022/01/09 05:40:23;;;;;;;6.60;3.03;;;;;;;;;;5011769;28;20022;-68
2022/01/09 05:42:50;;;;;;;13.85;3.63;;;;;;;;;;5011646;28;20064;-67
2022/01/09 05:45:18;;;;;;;6.18;2.22;;;;;;;;;;5011280;28;20029;-66
2022/01/09 05:47:45;;;;;;;9.52;2.28;;;;;;;;;;4993843;28;20161;-68
2022/01/09 05:50:12;;;;;;;6.13;1.70;;;;;;;;;;5010881;28;20049;-66
2022/01/09 05:52:39;;;;;;;8.18;1.60;;;;;;;;;;5010370;28;20044;-67
2022/01/09 05:55:07;;;;;;;8.32;1.50;;;;;;;;;;5011675;28;20025;-67
2022/01/09 05:57:34;;;;;;;7.78;1.33;;;;;;;;;;5011064;28;20029;-67
2022/01/09 06:00:01;;;;;;;6.55;1.20;;;;;;;;;;5010312;28;20155;-67
2022/01/09 06:02:28;;;;;;;7.65;1.15;;;;;;;;;;5011262;28;20030;-67
2022/01/09 06:04:55;;;;;;;7.18;1.48;;;;;;;;;;5011048;28;20037;-67
2022/01/09 06:07:22;;;;;;;6.72;1.20;;;;;;;;;;5011476;28;20087;-67
2022/01/09 06:09:49;;;;;;;5.43;0.85;;;;;;;;;;5010828;28;20026;-67
2022/01/09 06:12:16;;;;;;;4.97;1.20;;;;;;;;;;5010977;28;20112;-67
2022/01/09 06:14:43;;;;;;;7.28;1.23;;;;;;;;;;5011395;28;20018;-67
2022/01/09 06:17:10;;;;;;;5.72;1.05;;;;;;;;;;4993458;28;20065;-66
2022/01/09 06:19:37;;;;;;;7.20;1.08;;;;;;;;;;5011494;28;20030;-67
2022/01/09 06:22:04;;;;;;;5.28;0.90;;;;;;;;;;5011230;28;20485;-68
2022/01/09 06:24:31;;;;;;;7.63;1.15;;;;;;;;;;5010267;28;20088;-66
2022/01/09 06:26:58;;;;;;;5.70;1.20;;;;;;;;;;5011237;28;20022;-68
2022/01/09 06:29:25;;;;;;;9.73;1.00;;;;;;;;;;5011240;28;20026;-67
2022/01/09 06:31:52;;;;;;;10.80;1.65;;;;;;;;;;5011105;28;20037;-67
2022/01/09 06:34:19;;;;;;;9.50;1.25;;;;;;;;;;5010248;28;20023;-67
2022/01/09 06:36:46;;;;;;;13.82;2.22;;;;;;;;;;5011156;28;20650;-67
2022/01/09 06:39:13;;;;;;;8.52;1.42;;;;;;;;;;5011063;28;20358;-67
2022/01/09 06:41:40;;;;;;;13.73;1.33;;;;;;;;;;5011274;28;20481;-68
2022/01/09 06:44:07;;;;;;;5.72;1.13;;;;;;;;;;5011308;28;20034;-67
2022/01/09 06:46:34;;;;;;;8.18;1.25;;;;;;;;;;5009887;28;20416;-67
2022/01/09 06:49:02;;;;;;;9.80;1.52;;;;;;;;;;5008699;28;20061;-67
2022/01/09 06:51:29;;;;;;;6.07;1.30;;;;;;;;;;5011581;28;20101;-67
2022/01/09 06:53:56;;;;;;;4.20;0.85;;;;;;;;;;5008945;28;20537;-67
2022/01/09 06:56:23;;;;;;;12.50;1.58;;;;;;;;;;5012871;28;20033;-67
2022/01/09 06:58:50;;;;;;;5.53;1.42;;;;;;;;;;5006663;28;20045;-68
2022/01/09 07:01:17;;;;;;;7.43;1.33;;;;;;;;;;5007450;28;20398;-69
2022/01/09 07:03:44;;;;;;;5.57;1.05;;;;;;;;;;5012237;28;20052;-69
2022/01/09 07:06:11;;;;;;;8.00;1.58;;;;;;;;;;5011215;28;20018;-67
2022/01/09 07:08:38;;;;;;;8.15;1.08;;;;;;;;;;5010152;28;20026;-67
2022/01/09 07:11:05;;;;;;;10.80;1.10;;;;;;;;;;5010733;28;20022;-67
2022/01/09 07:13:33;;;;;;;17.95;1.13;;;;;;;;;;5011058;28;20088;-68
2022/01/09 07:16:00;;;;;;;4.25;1.15;;;;;;;;;;5010101;28;20028;-68
2022/01/09 07:18:27;;;;;;;8.38;1.25;;;;;;;;;;5010852;28;20402;-67
2022/01/09 07:20:54;;;;;;;5.10;1.10;;;;;;;;;;5011172;28;20018;-68
2022/01/09 07:23:21;;;;;;;9.20;1.05;;;;;;;;;;5013958;28;20109;-66
2022/01/09 07:25:48;;;;;;;6.53;1.67;;;;;;;;;;4995630;28;20030;-68
2022/01/09 07:28:16;;;;;;;7.90;1.33;;;;;;;;;;5013877;28;20038;-67
2022/01/09 07:30:43;;;;;;;5.82;0.95;;;;;;;;;;5014001;28;20106;-69
2022/01/09 07:33:10;;;;;;;13.00;5.70;;;;;;;;;;5014079;28;20432;-69
2022/01/09 07:35:37;;;;;;;9.73;1.30;;;;;;;;;;5013041;28;20024;-69
2022/01/09 07:38:04;;;;;;;8.15;1.35;;;;;;;;;;5013895;28;20025;-68
2022/01/09 07:40:31;;;;;;;4.97;1.20;;;;;;;;;;5013608;28;20056;-68
2022/01/09 07:42:58;;;;;;;5.40;1.02;;;;;;;;;;5014008;28;20109;-68
2022/01/09 07:45:27;;;;;;;4.90;1.08;;;;;;;;;;5013709;28;20026;-66
2022/01/09 07:47:55;;;;;;;7.22;1.10;;;;;;;;;;5013697;28;20080;-66
2022/01/09 07:50:23;;;;;;;4.20;0.80;;;;;;;;;;5013185;28;20037;-66
2022/01/09 07:52:51;;;;;;;7.53;1.00;;;;;;;;;;5013978;28;20041;-67
2022/01/09 07:55:22;;;;;;;5.80;1.20;;;;;;;;;;5013508;28;20041;-69
2022/01/09 07:57:49;;;;;;;6.38;0.85;;;;;;;;;;5013276;28;20037;-68
2022/01/09 08:00:17;;;;;;;5.72;0.95;;;;;;;;;;5013776;28;20102;-68
2022/01/09 08:02:44;;;;;;;7.18;1.17;;;;;;;;;;5013604;28;20076;-68
2022/01/09 08:05:12;;;;;;;2.83;0.90;;;;;;;;;;5013039;28;20061;-68
2022/01/09 08:07:39;;;;;;;4.68;1.50;;;;;;;;;;5013668;28;20057;-68
2022/01/09 08:10:07;;;;;;;7.93;1.00;;;;;;;;;;5013507;28;20100;-68
2022/01/09 08:12:34;;;;;;;9.23;1.05;;;;;;;;;;5013442;28;20389;-69
2022/01/09 08:15:01;;;;;;;2.75;0.70;;;;;;;;;;5013071;28;20034;-68
2022/01/09 08:17:28;;;;;;;5.32;1.42;;;;;;;;;;5012779;28;20030;-68
2022/01/09 08:19:55;;;;;;;10.23;1.73;;;;;;;;;;5013056;28;20509;-67
2022/01/09 08:22:27;;;;;;;8.02;1.00;;;;;;;;;;5012873;28;20030;-68
2022/01/09 08:24:55;;;;;;;12.00;1.08;;;;;;;;;;5013218;28;20030;-68
2022/01/09 08:27:22;;;;;;;14.13;1.70;;;;;;;;;;5012701;28;20037;-68
2022/01/09 08:29:49;;;;;;;16.52;1.63;;;;;;;;;;5013161;28;20018;-68
2022/01/09 08:32:16;;;;;;;9.55;1.55;;;;;;;;;;5012618;28;20112;-68
2022/01/09 08:34:43;;;;;;;11.50;1.20;;;;;;;;;;5012461;28;20096;-69
2022/01/09 08:37:12;;;;;;;7.47;1.25;;;;;;;;;;5012416;28;20030;-67
2022/01/09 08:39:40;;;;;;;11.75;1.10;;;;;;;;;;5013084;28;20018;-68
2022/01/09 08:42:07;;;;;;;16.25;1.50;;;;;;;;;;5013098;28;20549;-68
2022/01/09 08:44:34;;;;;;;13.15;1.50;;;;;;;;;;5012869;28;20030;-68
2022/01/09 08:47:01;;;;;;;7.65;1.17;;;;;;;;;;5012158;28;20029;-68
2022/01/09 08:49:28;;;;;;;7.13;1.23;;;;;;;;;;5012490;28;20036;-69
2022/01/09 08:51:55;;;;;;;12.35;1.30;;;;;;;;;;5012623;28;20030;-69
2022/01/09 08:54:22;;;;;;;12.65;1.23;;;;;;;;;;5012824;28;20030;-68
2022/01/09 08:56:49;;;;;;;8.02;1.88;;;;;;;;;;5011903;28;20029;-69
2022/01/09 08:59:16;;;;;;;10.02;1.45;;;;;;;;;;5012502;28;20816;-68
2022/01/09 09:01:43;;;;;;;10.68;1.13;;;;;;;;;;5012571;28;20057;-68
2022/01/09 09:04:11;;;;;;;19.25;1.75;;;;;;;;;;5012043;28;20038;-68
2022/01/09 09:06:38;;;;;;;8.18;1.50;;;;;;;;;;5011772;28;20547;-69
2022/01/09 09:09:05;;;;;;;10.85;1.42;;;;;;;;;;5012294;28;20373;-68
2022/01/09 09:11:32;;;;;;;7.38;1.10;;;;;;;;;;5012344;28;20437;-69
2022/01/09 09:13:59;;;;;;;24.77;12.80;;;;;;;;;;5012369;28;20737;-69
2022/01/09 09:16:26;;;;;;;7.55;1.33;;;;;;;;;;5011142;28;20054;-67
2022/01/09 09:18:53;;;;;;;3.50;1.02;;;;;;;;;;5012194;28;20109;-67
2022/01/09 09:21:20;;;;;;;5.00;1.15;;;;;;;;;;5011637;28;20026;-69
2022/01/09 09:23:47;;;;;;;5.90;1.25;;;;;;;;;;5012258;28;20788;-68
2022/01/09 09:26:16;;;;;;;3.70;1.00;;;;;;;;;;5011554;28;20014;-68
2022/01/09 09:28:44;;;;;;;11.00;1.25;;;;;;;;;;5011466;28;20064;-68
2022/01/09 09:31:11;;;;;;;8.43;1.35;;;;;;;;;;5011770;28;20034;-68
2022/01/09 09:33:38;;;;;;;10.95;1.23;;;;;;;;;;5012125;28;20026;-68
2022/01/09 09:36:05;;;;;;;7.80;0.93;;;;;;;;;;5011312;28;20088;-67
2022/01/09 09:38:32;;;;;;;9.00;1.55;;;;;;;;;;5011393;28;20045;-68
2022/01/09 09:40:59;;;;;;;10.82;1.30;;;;;;;;;;5011892;28;20466;-68
2022/01/09 09:43:26;;;;;;;9.18;1.15;;;;;;;;;;5011484;28;20478;-68
2022/01/09 09:45:54;;;;;;;9.20;1.10;;;;;;;;;;5010452;28;20061;-68
2022/01/09 09:48:21;;;;;;;12.98;1.25;;;;;;;;;;4993961;28;20034;-69
2022/01/09 09:50:48;;;;;;;9.70;1.00;;;;;;;;;;5011400;28;20042;-67
2022/01/09 09:53:15;;;;;;;12.00;1.23;;;;;;;;;;4994042;28;20029;-67
2022/01/09 09:55:44;;;;;;;6.65;1.27;;;;;;;;;;5011631;28;20018;-68
2022/01/09 09:58:12;;;;;;;8.95;1.80;;;;;;;;;;5010620;28;20120;-68
2022/01/09 10:00:39;;;;;;;4.63;1.23;;;;;;;;;;5011363;28;20022;-67
2022/01/09 10:03:07;;;;;;;6.30;0.70;;;;;;;;;;5011639;28;20017;-67
2022/01/09 10:05:35;;;;;;;7.72;1.13;;;;;;;;;;4993928;28;20044;-68
2022/01/09 10:08:07;;;;;;;6.57;1.45;;;;;;;;;;5010938;28;20093;-67
2022/01/09 10:10:35;;;;;;;8.32;0.95;;;;;;;;;;5011705;28;20022;-69
2022/01/09 10:13:12;;;;;;;11.07;1.30;;;;;;;;;;5011466;28;20057;-68
2022/01/09 10:15:47;;;;;;;8.60;1.50;;;;;;;;;;5011160;28;20105;-68
2022/01/09 10:18:15;;;;;;;5.35;1.08;;;;;;;;;;5011066;28;20405;-68
2022/01/09 10:20:43;;;;;;;4.35;1.35;;;;;;;;;;5011271;28;20022;-68
2022/01/09 10:23:10;;;;;;;7.47;1.13;;;;;;;;;;5011438;28;20029;-69
2022/01/09 10:25:38;;;;;;;10.93;1.00;;;;;;;;;;5011239;28;20022;-67
2022/01/09 10:28:12;;;;;;;6.72;0.95;;;;;;;;;;5010411;28;20105;-68
2022/01/09 10:30:43;;;;;;;5.70;1.38;;;;;;;;;;5011272;28;20502;-67
2022/01/09 10:33:14;;;;;;;17.07;2.20;;;;;;;;;;5011386;28;20038;-66
2022/01/09 10:35:43;;;;;;;12.52;1.27;;;;;;;;;;5010895;28;20041;-67
2022/01/09 10:38:13;;;;;;;8.85;1.20;;;;;;;;;;5010699;28;20037;-66
2022/01/09 10:40:41;;;;;;;8.07;0.95;;;;;;;;;;5011100;28;20440;-66
2022/01/09 10:43:08;;;;;;;13.80;1.75;;;;;;;;;;5007293;28;20030;-66
2022/01/09 10:45:38;;;;;;;14.45;1.42;;;;;;;;;;5010574;28;20123;-67
2022/01/09 10:48:06;;;;;;;10.85;1.55;;;;;;;;;;5010918;28;20044;-68
2022/01/09 10:50:36;;;;;;;5.95;1.00;;;;;;;;;;5011200;28;20551;-68
2022/01/09 10:53:17;;;;;;;8.60;1.73;;;;;;;;;;5030368;28;20021;-69
2022/01/09 10:55:45;;;;;;;14.98;1.35;;;;;;;;;;5031453;28;20025;-68
2022/01/09 10:58:19;;;;;;;6.03;1.10;;;;;;;;;;5034229;28;20404;-68
2022/01/09 11:00:46;;;;;;;6.03;1.95;;;;;;;;;;5033617;28;20076;-67
2022/01/09 11:03:14;;;;;;;10.98;1.27;;;;;;;;;;5031461;28;20045;-68
2022/01/09 11:05:42;;;;;;;6.07;1.50;;;;;;;;;;5014121;28;20057;-68
2022/01/09 11:08:09;;;;;;;7.28;0.98;;;;;;;;;;5013777;28;20057;-67
2022/01/09 11:10:36;;;;;;;6.10;1.13;;;;;;;;;;5014428;28;20502;-67
2022/01/09 11:13:04;;;;;;;6.13;1.40;;;;;;;;;;5014440;28;20075;-66
2022/01/09 11:15:40;;;;;;;11.50;1.10;;;;;;;;;;5014477;28;20026;-68
2022/01/09 11:18:08;;;;;;;6.53;1.00;;;;;;;;;;5013694;28;20030;-69
2022/01/09 11:20:35;;;;;;;8.05;1.23;;;;;;;;;;5014240;28;20026;-67
2022/01/09 11:23:03;;;;;;;8.23;1.15;;;;;;;;;;5014271;28;20437;-67
2022/01/09 11:25:35;;;;;;;5.38;1.27;;;;;;;;;;5013716;28;20037;-68
2022/01/09 11:28:02;;;;;;;10.55;1.38;;;;;;;;;;5013575;28;20026;-68
2022/01/09 11:30:41;;;;;;;10.70;1.58;;;;;;;;;;5013925;28;20494;-67
2022/01/09 11:33:20;;;;;;;11.20;1.30;;;;;;;;;;5014051;28;20025;-68
2022/01/09 11:35:50;;;;;;;6.10;1.42;;;;;;;;;;5014048;28;20037;-68
2022/01/09 11:38:27;;;;;;;7.30;1.20;;;;;;;;;;5013610;28;20033;-67
2022/01/09 11:40:54;;;;;;;7.47;1.48;;;;;;;;;;5014157;28;20057;-67
2022/01/09 11:43:21;;;;;;;6.47;1.33;;;;;;;;;;5014018;28;20112;-67
2022/01/09 11:45:52;;;;;;;14.63;1.50;;;;;;;;;;5013629;28;20026;-68
2022/01/09 11:48:21;;;;;;;6.78;1.25;;;;;;;;;;5012704;28;20470;-68
2022/01/09 11:51:06;;;;;;;12.27;1.55;;;;;;;;;;5013156;28;20143;-69
2022/01/09 11:53:51;;;;;;;6.78;1.60;;;;;;;;;;5013870;28;20708;-69
2022/01/09 11:56:38;;;;;;;9.65;1.45;;;;;;;;;;5013055;28;20485;-69
2022/01/09 11:59:23;;;;;;;8.95;1.55;;;;;;;;;;5012877;28;20030;-69
2022/01/09 12:01:51;;;;;;;9.68;1.77;;;;;;;;;;5013499;28;20038;-68
2022/01/09 12:04:33;;;;;;;17.23;1.60;;;;;;;;;;5013012;28;20026;-69
2022/01/09 12:07:07;;;;;;;15.25;2.33;;;;;;;;;;5012631;28;20034;-68
2022/01/09 12:09:46;;;;;;;14.60;2.05;;;;;;;;;;5012886;28;20021;-69
2022/01/09 12:12:14;;;;;;;10.38;1.60;;;;;;;;;;5013409;28;20060;-69
2022/01/09 12:14:44;;;;;;;17.75;2.30;;;;;;;;;;5012984;28;20038;-69
2022/01/09 12:17:25;;;;;;;11.48;2.38;;;;;;;;;;5012974;28;20139;-70
2022/01/09 12:20:11;;;;;;;18.42;2.33;;;;;;;;;;5012678;28;20041;-69
2022/01/09 12:22:45;;;;;;;11.00;2.00;;;;;;;;;;5013247;28;20038;-69
2022/01/09 12:25:25;;;;;;;18.88;2.45;;;;;;;;;;5012789;28;20133;-69
2022/01/09 12:27:54;;;;;;;25.30;2.85;;;;;;;;;;4995293;28;20034;-67
2022/01/09 12:30:33;;;;;;;26.63;3.22;;;;;;;;;;5012878;28;20036;-68
2022/01/09 12:33:01;;;;;;;29.52;3.28;;;;;;;;;;5013002;28;20028;-69
2022/01/09 12:35:28;;;;;;;18.77;2.28;;;;;;;;;;5012849;28;20196;-69
2022/01/09 12:37:58;;;;;;;18.13;3.30;;;;;;;;;;5012798;28;20050;-68
2022/01/09 12:40:26;;;;;;;14.60;2.33;;;;;;;;;;5012282;28;20509;-67
2022/01/09 12:42:54;;;;;;;25.58;2.92;;;;;;;;;;5012796;28;20025;-69
2022/01/09 12:45:22;;;;;;;29.95;3.08;;;;;;;;;;5012822;28;20025;-68
2022/01/09 12:47:49;;;;;;;18.58;2.33;;;;;;;;;;4994859;28;20030;-69
2022/01/09 12:50:16;;;;;;;21.05;2.65;;;;;;;;;;5012583;28;20452;-68
2022/01/09 12:52:43;;;;;;;18.48;3.05;;;;;;;;;;5012812;28;20084;-68
2022/01/09 12:55:15;;;;;;;26.63;3.40;;;;;;;;;;5012237;28;20040;-67
2022/01/09 12:57:55;;;;;;;17.85;2.58;;;;;;;;;;5010992;28;20585;-68
2022/01/09 13:00:40;;;;;;;21.05;3.17;;;;;;;;;;5011588;28;20022;-67
2022/01/09 13:03:07;;;;;;;17.90;2.55;;;;;;;;;;5012055;28;20072;-68
2022/01/09 13:05:34;;;;;;;12.15;2.22;;;;;;;;;;5011867;28;20382;-68
2022/01/09 13:08:02;;;;;;;27.98;2.65;;;;;;;;;;5024035;28;20037;-68
2022/01/09 13:10:30;;;;;;;18.63;2.60;;;;;;;;;;5029884;28;20091;-69
2022/01/09 13:13:01;;;;;;;22.10;2.53;;;;;;;;;;4996661;28;20036;-68
2022/01/09 13:15:34;;;;;;;15.85;2.50;;;;;;;;;;5029495;28;20467;-68
2022/01/09 13:18:02;;;;;;;13.30;2.17;;;;;;;;;;5031635;28;20374;-68
2022/01/09 13:20:29;;;;;;;15.73;1.88;;;;;;;;;;5031063;28;20021;-67
2022/01/09 13:23:05;;;;;;;16.55;1.77;;;;;;;;;;5030553;28;20034;-67
2022/01/09 13:25:45;;;;;;;11.98;2.63;;;;;;;;;;5030609;28;20108;-66
2022/01/09 13:28:21;;;;;;;14.98;2.05;;;;;;;;;;5030859;28;20021;-67
2022/01/09 13:30:49;;;;;;;19.67;2.88;;;;;;;;;;5030868;28;20060;-67
2022/01/09 13:33:16;;;;;;;14.07;2.08;;;;;;;;;;5030289;28;20388;-66
2022/01/09 13:35:43;;;;;;;11.73;1.80;;;;;;;;;;5030777;28;20124;-65
2022/01/09 13:38:10;;;;;;;12.40;2.10;;;;;;;;;;5010786;28;20040;-69
2022/01/09 13:40:38;;;;;;;8.98;1.73;;;;;;;;;;5028926;28;20021;-69
2022/01/09 13:43:05;;;;;;;15.23;1.60;;;;;;;;;;5028908;28;20108;-68
2022/01/09 13:45:37;;;;;;;16.98;2.40;;;;;;;;;;5030621;28;20026;-68
2022/01/09 13:48:05;;;;;;;;;;;;;;;;;;5031263;28;20036;-69
2022/01/09 13:50:34;;;;;;;18.20;2.70;;;;;;;;;;5022583;28;19941;-67
2022/01/09 13:53:08;;;;;;;15.05;2.22;;;;;;;;;;4989744;28;20070;-68
2022/01/09 13:55:36;;;;;;;19.77;2.90;;;;;;;;;;5003378;28;20034;-67
2022/01/09 13:58:06;;;;;;;21.92;2.30;;;;;;;;;;5003651;28;20029;-66
2022/01/09 14:00:41;;;;;;;18.92;2.78;;;;;;;;;;5003085;28;20048;-67
2022/01/09 14:03:09;;;;;;;21.52;3.13;;;;;;;;;;5002798;28;20060;-67
2022/01/09 14:05:49;;;;;;;20.42;2.95;;;;;;;;;;5006899;28;20022;-67
2022/01/09 14:08:17;;;;;;;17.75;2.40;;;;;;;;;;4994993;28;20513;-67
2022/01/09 14:10:46;;;;;;;20.27;3.13;;;;;;;;;;5001484;28;20053;-67
2022/01/09 14:13:13;;;;;;;14.93;2.40;;;;;;;;;;4998237;28;20032;-67
2022/01/09 14:15:41;;;;;;;27.27;2.95;;;;;;;;;;5003285;28;20477;-67
2022/01/09 14:18:21;;;;;;;19.95;2.70;;;;;;;;;;5005604;28;20049;-67
2022/01/09 14:20:48;;;;;;;24.67;3.67;;;;;;;;;;5004677;28;20021;-66
2022/01/09 14:23:16;;;;;;;30.08;3.10;;;;;;;;;;5004700;28;20048;-67
2022/01/09 14:25:46;;;;;;;25.33;3.17;;;;;;;;;;5003803;28;20026;-66
2022/01/09 14:28:14;;;;;;;17.80;2.78;;;;;;;;;;5004352;28;20049;-67
2022/01/09 14:30:45;;;;;;;15.60;2.33;;;;;;;;;;5007818;28;20113;-66
2022/01/09 14:33:18;;;;;;;27.17;2.42;;;;;;;;;;5007300;28;20056;-66
2022/01/09 14:36:05;;;;;;;15.90;2.75;;;;;;;;;;5007392;28;20482;-67
2022/01/09 14:38:34;;;;;;;24.10;2.38;;;;;;;;;;5008521;28;20045;-67
2022/01/09 14:41:02;;;;;;;15.10;2.40;;;;;;;;;;5007097;28;20024;-67
2022/01/09 14:43:30;;;;;;;14.10;2.13;;;;;;;;;;5009152;28;20026;-67
2022/01/09 14:45:59;;;;;;;22.20;2.67;;;;;;;;;;5007821;28;20096;-67